createdAt,value
2019-06-23T00:02:19.089Z,3.63
2019-06-23T00:04:48.545Z,3.90
2019-06-23T00:07:17.910Z,4.27
2019-06-23T00:09:47.375Z,4.53
2019-06-23T00:12:16.867Z,4.43
2019-06-23T00:14:46.253Z,4.53
2019-06-23T00:17:15.679Z,5.70
2019-06-23T00:19:45.018Z,7.27
2019-06-23T00:22:14.431Z,6.73
2019-06-23T00:24:43.838Z,6.67
2019-06-23T00:27:13.332Z,7.00
2019-06-23T00:29:42.785Z,7.60
2019-06-23T00:32:12.329Z,7.40
2019-06-23T00:34:41.790Z,7.07
2019-06-23T00:37:11.289Z,6.70
2019-06-23T00:39:40.743Z,6.60
2019-06-23T00:42:10.230Z,6.97
2019-06-23T00:44:39.685Z,6.83
2019-06-23T00:47:09.054Z,7.27
2019-06-23T00:49:38.858Z,6.67
2019-06-23T00:52:08.312Z,7.47
2019-06-23T00:54:38.066Z,7.10
2019-06-23T00:57:07.517Z,6.70
2019-06-23T00:59:36.953Z,6.83
2019-06-23T01:02:30.795Z,7.90
2019-06-23T01:05:00.235Z,7.17
2019-06-23T01:07:48.746Z,8.47
2019-06-23T01:10:19.708Z,7.00
2019-06-23T01:12:49.107Z,6.57
2019-06-23T01:15:19.176Z,8.80
2019-06-23T01:17:48.661Z,10.77
2019-06-23T01:20:18.258Z,11.50
2019-06-23T01:22:47.687Z,10.70
2019-06-23T01:25:17.265Z,10.10
2019-06-23T01:27:46.722Z,10.33
2019-06-23T01:30:16.337Z,10.40
2019-06-23T01:32:45.769Z,11.10
2019-06-23T01:35:15.164Z,10.17
2019-06-23T01:37:44.928Z,9.73
2019-06-23T01:40:15.267Z,9.07
2019-06-23T01:42:44.720Z,10.43
2019-06-23T01:45:14.343Z,10.00
2019-06-23T01:47:43.763Z,10.20
2019-06-23T01:50:13.211Z,10.67
2019-06-23T01:52:42.877Z,10.73
2019-06-23T01:55:12.761Z,11.20
2019-06-23T01:57:42.228Z,10.07
2019-06-23T02:00:12.674Z,10.03
2019-06-23T02:02:42.226Z,12.10
2019-06-23T02:05:12.277Z,14.80
2019-06-23T02:07:41.764Z,14.53
2019-06-23T02:10:11.428Z,14.33
2019-06-23T02:12:40.860Z,13.93
2019-06-23T02:15:11.792Z,16.17
2019-06-23T02:17:41.182Z,16.20
2019-06-23T02:20:12.607Z,16.47
2019-06-23T02:22:43.712Z,15.73
2019-06-23T02:25:13.792Z,15.97
2019-06-23T02:27:43.184Z,15.30
2019-06-23T02:30:12.783Z,15.10
2019-06-23T02:32:42.280Z,16.43
2019-06-23T02:35:11.858Z,15.00
2019-06-23T02:37:41.250Z,17.07
2019-06-23T02:40:11.393Z,16.53
2019-06-23T02:42:40.861Z,16.17
2019-06-23T02:45:10.824Z,14.97
2019-06-23T02:48:01.642Z,16.07
2019-06-23T02:50:56.133Z,13.63
2019-06-23T02:53:32.009Z,10.57
2019-06-23T02:56:08.370Z,6.90
2019-06-23T02:58:43.287Z,6.60
2019-06-23T03:01:14.135Z,5.60
2019-06-23T03:03:43.512Z,6.03
2019-06-23T03:06:13.041Z,5.50
2019-06-23T03:08:42.616Z,6.20
2019-06-23T03:11:12.223Z,5.90
2019-06-23T03:13:41.589Z,5.67
2019-06-23T03:16:13.427Z,5.90
2019-06-23T03:18:42.847Z,5.27
2019-06-23T03:21:12.220Z,5.63
2019-06-23T03:23:42.069Z,5.10
2019-06-23T03:26:26.215Z,5.63
2019-06-23T03:28:55.675Z,4.73
2019-06-23T03:31:25.863Z,5.27
2019-06-23T03:33:55.718Z,6.03
2019-06-23T03:36:25.239Z,5.70
2019-06-23T03:38:54.587Z,5.40
2019-06-23T03:41:24.908Z,5.13
2019-06-23T03:43:54.460Z,5.40
2019-06-23T03:46:24.333Z,4.80
2019-06-23T03:48:53.835Z,5.10
2019-06-23T03:51:23.359Z,4.70
2019-06-23T03:53:52.814Z,5.80
2019-06-23T03:56:23.146Z,5.67
2019-06-23T03:58:52.650Z,4.60
2019-06-23T04:01:22.112Z,5.07
2019-06-23T04:03:51.516Z,5.17
2019-06-23T04:06:21.199Z,4.93
2019-06-23T04:08:50.590Z,5.10
2019-06-23T04:11:20.149Z,5.43
2019-06-23T04:13:49.657Z,5.43
2019-06-23T04:16:20.123Z,4.90
2019-06-23T04:18:49.945Z,4.70
2019-06-23T04:21:19.393Z,5.43
2019-06-23T04:23:48.856Z,4.63
2019-06-23T04:26:18.317Z,4.53
2019-06-23T04:28:48.103Z,4.47
2019-06-23T04:31:17.568Z,4.60
2019-06-23T04:33:46.940Z,5.47
2019-06-23T04:36:16.418Z,5.77
2019-06-23T04:38:45.856Z,5.93
2019-06-23T04:41:15.453Z,6.90
2019-06-23T04:44:03.911Z,6.40
2019-06-23T04:46:33.395Z,6.60
2019-06-23T04:49:02.894Z,6.00
2019-06-23T04:51:32.259Z,6.63
2019-06-23T04:54:01.670Z,6.47
2019-06-23T04:56:31.150Z,6.30
2019-06-23T04:59:02.233Z,6.53
2019-06-23T05:01:31.673Z,6.30
2019-06-23T05:04:01.735Z,6.57
2019-06-23T05:06:31.264Z,7.17
2019-06-23T05:09:00.689Z,6.83
2019-06-23T05:11:30.096Z,6.83
2019-06-23T05:13:59.515Z,6.97
2019-06-23T05:16:28.960Z,7.43
2019-06-23T05:18:58.400Z,7.80
2019-06-23T05:21:28.198Z,8.60
2019-06-23T05:23:57.601Z,8.53
2019-06-23T05:26:27.096Z,8.77
2019-06-23T05:28:56.537Z,8.53
2019-06-23T05:31:25.959Z,8.60
2019-06-23T05:33:55.422Z,8.07
2019-06-23T05:36:38.950Z,7.67
2019-06-23T05:38:56.058Z,8.67
2019-06-23T05:41:25.507Z,9.17
2019-06-23T05:43:54.965Z,8.37
2019-06-23T05:46:24.441Z,8.67
2019-06-23T05:48:53.863Z,8.43
2019-06-23T05:51:23.341Z,7.67
2019-06-23T05:53:52.713Z,7.97
2019-06-23T05:56:22.167Z,7.63
2019-06-23T05:58:51.653Z,7.37
2019-06-23T06:01:21.172Z,7.67
2019-06-23T06:03:50.569Z,7.67
2019-06-23T06:06:19.895Z,7.33
2019-06-23T06:08:49.472Z,6.83
2019-06-23T06:11:18.865Z,6.42
2019-06-23T06:13:47.701Z,7.47
2019-06-23T06:16:17.103Z,6.70
2019-06-23T06:18:46.505Z,6.00
2019-06-23T06:21:15.926Z,6.10
2019-06-23T06:23:45.335Z,6.30
2019-06-23T06:26:14.825Z,5.60
2019-06-23T06:28:44.704Z,6.00
2019-06-23T06:31:14.125Z,5.37
2019-06-23T06:33:43.495Z,5.20
2019-06-23T06:36:12.964Z,5.10
2019-06-23T06:38:42.512Z,4.80
2019-06-23T06:41:11.955Z,4.78
2019-06-23T06:43:41.381Z,4.62
2019-06-23T06:46:10.916Z,4.95
2019-06-23T06:48:40.266Z,5.58
2019-06-23T06:51:09.675Z,4.83
2019-06-23T06:53:39.129Z,4.65
2019-06-23T06:56:08.602Z,4.25
2019-06-23T06:58:38.129Z,4.45
2019-06-23T07:01:07.585Z,5.08
2019-06-23T07:03:37.222Z,5.20
2019-06-23T07:06:07.107Z,5.30
2019-06-23T07:08:36.552Z,4.67
2019-06-23T07:11:06.124Z,5.03
2019-06-23T07:13:35.620Z,5.37
2019-06-23T07:16:05.121Z,4.60
2019-06-23T07:18:34.575Z,5.03
2019-06-23T07:21:04.129Z,4.50
2019-06-23T07:23:36.336Z,4.00
2019-06-23T07:26:04.766Z,4.60
2019-06-23T07:28:34.331Z,4.47
2019-06-23T07:31:26.655Z,4.53
2019-06-23T07:33:56.075Z,4.72
2019-06-23T07:36:25.486Z,4.70
2019-06-23T07:38:54.960Z,4.28
2019-06-23T07:41:24.443Z,4.28
2019-06-23T07:43:53.888Z,4.40
2019-06-23T07:46:23.411Z,4.08
2019-06-23T07:48:52.889Z,4.65
2019-06-23T07:51:22.318Z,4.05
2019-06-23T07:53:51.777Z,4.05
2019-06-23T07:56:21.202Z,4.25
2019-06-23T07:58:50.579Z,4.40
2019-06-23T08:01:19.966Z,4.33
2019-06-23T08:03:50.360Z,4.45
2019-06-23T08:06:19.814Z,4.58
2019-06-23T08:08:49.199Z,3.83
2019-06-23T08:11:18.787Z,3.75
2019-06-23T08:13:48.212Z,5.70
2019-06-23T08:16:17.619Z,4.22
2019-06-23T08:18:47.096Z,4.08
2019-06-23T08:21:16.537Z,3.80
2019-06-23T08:23:45.890Z,3.72
2019-06-23T08:26:15.652Z,4.90
2019-06-23T08:28:45.128Z,4.75
2019-06-23T08:31:14.610Z,3.95
2019-06-23T08:33:44.140Z,4.10
2019-06-23T08:36:13.618Z,4.08
2019-06-23T08:38:43.023Z,4.47
2019-06-23T08:41:12.530Z,4.03
2019-06-23T08:43:41.982Z,4.17
2019-06-23T08:46:11.910Z,3.95
2019-06-23T08:48:41.448Z,4.65
2019-06-23T08:51:10.883Z,4.15
2019-06-23T08:53:40.345Z,4.53
2019-06-23T08:56:09.781Z,4.78
2019-06-23T08:58:39.248Z,3.92
2019-06-23T09:01:08.670Z,3.35
2019-06-23T09:03:38.553Z,3.77
2019-06-23T09:06:08.178Z,4.60
2019-06-23T09:08:37.766Z,3.70
2019-06-23T09:11:07.226Z,4.45
2019-06-23T09:13:36.645Z,4.40
2019-06-23T09:16:06.130Z,3.87
2019-06-23T09:18:35.728Z,3.60
2019-06-23T09:21:05.155Z,3.67
2019-06-23T09:23:34.536Z,4.25
2019-06-23T09:26:03.951Z,6.60
2019-06-23T09:28:32.798Z,12.95
2019-06-23T09:31:01.575Z,4.40
2019-06-23T09:33:30.394Z,12.90
2019-06-23T09:35:59.201Z,4.80
2019-06-23T09:38:28.073Z,4.03
2019-06-23T09:40:57.578Z,4.20
2019-06-23T09:43:27.145Z,4.30
2019-06-23T09:45:56.637Z,3.80
2019-06-23T09:48:26.027Z,3.98
2019-06-23T09:50:55.556Z,4.30
2019-06-23T09:53:24.980Z,4.15
2019-06-23T09:55:54.505Z,4.17
2019-06-23T09:58:23.940Z,3.85
2019-06-23T10:00:53.375Z,4.58
2019-06-23T10:03:22.895Z,3.98
2019-06-23T10:05:52.329Z,3.92
2019-06-23T10:08:22.008Z,3.60
2019-06-23T10:10:51.462Z,3.60
2019-06-23T10:13:20.944Z,3.85
2019-06-23T10:15:50.360Z,3.92
2019-06-23T10:18:19.856Z,3.95
2019-06-23T10:20:49.257Z,4.10
2019-06-23T10:23:18.739Z,3.33
2019-06-23T10:25:48.240Z,4.12
2019-06-23T10:28:17.702Z,3.52
2019-06-23T10:30:47.109Z,3.72
2019-06-23T10:33:16.554Z,4.45
2019-06-23T10:35:45.984Z,3.22
2019-06-23T10:38:15.439Z,3.75
2019-06-23T10:40:44.950Z,4.00
2019-06-23T10:43:14.421Z,4.22
2019-06-23T10:45:43.826Z,4.22
2019-06-23T10:48:13.207Z,4.17
2019-06-23T10:50:42.696Z,4.47
2019-06-23T10:53:12.085Z,4.28
2019-06-23T10:55:41.481Z,3.35
2019-06-23T10:58:10.899Z,3.60
2019-06-23T11:00:40.269Z,4.30
2019-06-23T11:03:20.946Z,4.10
2019-06-23T11:05:51.811Z,4.80
2019-06-23T11:08:21.349Z,4.17
2019-06-23T11:10:51.229Z,4.22
2019-06-23T11:13:20.645Z,3.77
2019-06-23T11:15:50.001Z,3.98
2019-06-23T11:18:19.467Z,4.50
2019-06-23T11:20:48.939Z,4.80
2019-06-23T11:23:18.371Z,3.75
2019-06-23T11:25:47.868Z,3.80
2019-06-23T11:28:17.297Z,3.92
2019-06-23T11:30:46.742Z,3.80
2019-06-23T11:33:16.128Z,4.72
2019-06-23T11:35:45.461Z,3.62
2019-06-23T11:38:14.869Z,3.92
2019-06-23T11:40:44.384Z,3.72
2019-06-23T11:43:13.758Z,4.53
2019-06-23T11:45:43.151Z,3.83
2019-06-23T11:48:12.676Z,4.40
2019-06-23T11:50:42.073Z,3.65
2019-06-23T11:53:11.464Z,4.12
2019-06-23T11:55:40.941Z,4.70
2019-06-23T11:58:10.389Z,3.40
2019-06-23T12:00:39.772Z,3.80
2019-06-23T12:03:09.373Z,3.72
2019-06-23T12:05:38.757Z,3.72
2019-06-23T12:08:08.175Z,3.42
2019-06-23T12:10:37.714Z,4.05
2019-06-23T12:13:07.241Z,4.03
2019-06-23T12:15:36.596Z,4.35
2019-06-23T12:18:05.994Z,4.17
2019-06-23T12:20:35.341Z,4.20
2019-06-23T12:23:04.739Z,3.85
2019-06-23T12:25:34.450Z,3.42
2019-06-23T12:28:03.920Z,4.95
2019-06-23T12:30:33.296Z,4.08
2019-06-23T12:33:02.763Z,3.60
2019-06-23T12:35:32.237Z,3.65
2019-06-23T12:38:01.668Z,3.65
2019-06-23T12:40:31.159Z,4.10
2019-06-23T12:43:00.492Z,3.70
2019-06-23T12:45:29.935Z,4.00
2019-06-23T12:47:59.416Z,4.00
2019-06-23T12:50:28.926Z,5.70
2019-06-23T12:52:58.406Z,4.30
2019-06-23T12:55:27.914Z,3.98
2019-06-23T12:57:57.409Z,4.40
2019-06-23T13:00:26.883Z,3.50
2019-06-23T13:02:58.694Z,3.50
2019-06-23T13:05:28.129Z,3.80
2019-06-23T13:07:57.583Z,3.95
2019-06-23T13:10:39.957Z,4.00
2019-06-23T13:12:58.191Z,4.25
2019-06-23T13:15:28.003Z,3.80
2019-06-23T13:17:57.442Z,3.87
2019-06-23T13:20:26.900Z,3.80
2019-06-23T13:22:56.331Z,3.92
2019-06-23T13:25:25.809Z,5.30
2019-06-23T13:27:55.216Z,4.92
2019-06-23T13:30:25.013Z,4.92
2019-06-23T13:32:54.418Z,5.15
2019-06-23T13:35:23.898Z,4.80
2019-06-23T13:37:53.307Z,4.45
2019-06-23T13:40:22.735Z,4.83
2019-06-23T13:42:52.216Z,5.30
2019-06-23T13:45:21.935Z,4.22
2019-06-23T13:47:51.449Z,4.92
2019-06-23T13:50:21.287Z,5.20
2019-06-23T13:52:50.623Z,5.03
2019-06-23T13:55:20.045Z,4.17
2019-06-23T13:57:49.469Z,4.97
2019-06-23T14:00:19.129Z,5.42
2019-06-23T14:02:48.593Z,4.97
2019-06-23T14:05:17.952Z,4.75
2019-06-23T14:07:47.436Z,4.90
2019-06-23T14:10:18.479Z,5.10
2019-06-23T14:12:47.934Z,4.90
2019-06-23T14:15:18.415Z,4.72
2019-06-23T14:17:48.272Z,5.20
2019-06-23T14:20:17.647Z,4.30
2019-06-23T14:22:47.058Z,4.90
2019-06-23T14:25:16.540Z,5.10
2019-06-23T14:27:45.980Z,4.80
2019-06-23T14:30:16.151Z,4.67
2019-06-23T14:32:45.537Z,5.08
2019-06-23T14:35:15.019Z,4.70
2019-06-23T14:37:44.393Z,4.65
2019-06-23T14:40:14.364Z,4.58
2019-06-23T14:42:43.754Z,5.17
2019-06-23T14:45:13.362Z,5.20
2019-06-23T14:47:42.898Z,4.35
2019-06-23T14:50:12.979Z,4.90
2019-06-23T14:52:42.370Z,4.72
2019-06-23T14:55:12.513Z,4.60
2019-06-23T14:57:41.988Z,4.40
2019-06-23T15:00:12.487Z,4.90
2019-06-23T15:02:41.967Z,4.95
2019-06-23T15:05:11.478Z,4.40
2019-06-23T15:07:40.863Z,4.83
2019-06-23T15:10:10.466Z,5.22
2019-06-23T15:12:39.791Z,5.22
2019-06-23T15:15:09.172Z,4.87
2019-06-23T15:17:38.672Z,4.12
2019-06-23T15:20:26.119Z,5.10
2019-06-23T15:22:41.236Z,5.17
2019-06-23T15:25:10.874Z,4.55
2019-06-23T15:27:40.315Z,4.50
2019-06-23T15:30:10.509Z,4.90
2019-06-23T15:32:39.878Z,5.03
2019-06-23T15:35:09.445Z,5.20
2019-06-23T15:37:38.982Z,4.85
2019-06-23T15:40:08.954Z,5.15
2019-06-23T15:42:38.747Z,4.70
2019-06-23T15:45:09.094Z,4.80
2019-06-23T15:47:38.559Z,4.53
2019-06-23T15:50:08.616Z,4.75
2019-06-23T15:52:38.244Z,4.47
2019-06-23T15:55:08.163Z,4.47
2019-06-23T15:57:37.597Z,4.60
2019-06-23T16:00:08.092Z,4.00
2019-06-23T16:02:37.544Z,3.70
2019-06-23T16:05:07.299Z,3.77
2019-06-23T16:07:36.780Z,3.72
2019-06-23T16:10:07.158Z,3.90
2019-06-23T16:12:36.609Z,3.67
2019-06-23T16:15:06.409Z,4.05
2019-06-23T16:17:35.779Z,4.70
2019-06-23T16:20:05.746Z,4.08
2019-06-23T16:22:35.393Z,3.70
2019-06-23T16:25:05.133Z,3.90
2019-06-23T16:27:34.502Z,3.37
2019-06-23T16:30:04.129Z,3.92
2019-06-23T16:32:33.600Z,3.65
2019-06-23T16:35:03.051Z,3.80
2019-06-23T16:37:32.713Z,3.60
2019-06-23T16:40:02.296Z,3.22
2019-06-23T16:42:33.118Z,4.03
2019-06-23T16:45:03.257Z,3.20
2019-06-23T16:47:32.637Z,3.50
2019-06-23T16:50:02.058Z,3.33
2019-06-23T16:52:31.820Z,3.37
2019-06-23T16:55:01.270Z,4.03
2019-06-23T16:57:30.649Z,3.70
2019-06-23T17:00:00.170Z,3.60
2019-06-23T17:02:29.513Z,3.72
2019-06-23T17:04:59.010Z,3.60
2019-06-23T17:07:28.525Z,3.92
2019-06-23T17:09:58.006Z,4.20
2019-06-23T17:12:27.446Z,3.80
2019-06-23T17:14:57.148Z,4.20
2019-06-23T17:17:26.516Z,4.80
2019-06-23T17:19:55.897Z,3.92
2019-06-23T17:22:25.326Z,4.35
2019-06-23T17:24:55.215Z,4.30
2019-06-23T17:27:24.671Z,3.75
2019-06-23T17:29:55.993Z,4.00
2019-06-23T17:32:24.575Z,3.72
2019-06-23T17:34:53.990Z,3.70
2019-06-23T17:37:23.814Z,3.70
2019-06-23T17:39:53.262Z,4.00
2019-06-23T17:42:22.723Z,4.00
2019-06-23T17:44:52.218Z,4.15
2019-06-23T17:47:21.671Z,4.05
2019-06-23T17:49:51.345Z,4.10
2019-06-23T17:52:20.806Z,4.33
2019-06-23T17:54:50.194Z,4.25
2019-06-23T17:57:20.061Z,4.42
2019-06-23T17:59:49.512Z,3.85
2019-06-23T18:02:18.934Z,3.92
2019-06-23T18:04:48.393Z,4.17
2019-06-23T18:07:17.880Z,3.87
2019-06-23T18:09:47.446Z,3.70
2019-06-23T18:12:17.390Z,3.85
2019-06-23T18:14:54.601Z,3.87
2019-06-23T18:17:23.984Z,3.98
2019-06-23T18:19:53.407Z,3.77
2019-06-23T18:22:22.850Z,3.70
2019-06-23T18:24:57.128Z,3.60
2019-06-23T18:27:27.472Z,3.67
2019-06-23T18:29:56.963Z,3.80
2019-06-23T18:32:26.401Z,3.67
2019-06-23T18:34:55.942Z,3.50
2019-06-23T18:37:25.420Z,3.67
2019-06-23T18:39:54.847Z,3.90
2019-06-23T18:42:24.302Z,5.08
2019-06-23T18:44:53.731Z,3.98
2019-06-23T18:47:23.124Z,3.70
2019-06-23T18:49:52.589Z,3.22
2019-06-23T18:52:22.035Z,3.98
2019-06-23T18:54:51.415Z,3.62
2019-06-23T18:57:21.074Z,3.70
2019-06-23T18:59:50.556Z,3.52
2019-06-23T19:02:19.927Z,3.67
2019-06-23T19:04:49.339Z,3.47
2019-06-23T19:07:18.914Z,4.25
2019-06-23T19:09:48.359Z,3.70
2019-06-23T19:12:17.819Z,4.20
2019-06-23T19:14:47.267Z,3.62
2019-06-23T19:17:16.639Z,3.90
2019-06-23T19:19:46.050Z,3.40
2019-06-23T19:22:15.454Z,3.52
2019-06-23T19:24:44.928Z,3.83
2019-06-23T19:27:14.448Z,3.77
2019-06-23T19:29:44.501Z,3.67
2019-06-23T19:32:13.895Z,3.70
2019-06-23T19:34:43.439Z,3.67
2019-06-23T19:37:12.927Z,3.50
2019-06-23T19:39:42.404Z,3.92
2019-06-23T19:42:11.909Z,3.50
2019-06-23T19:44:41.384Z,3.40
2019-06-23T19:47:10.824Z,3.30
2019-06-23T19:49:40.377Z,3.80
2019-06-23T19:52:09.816Z,3.80
2019-06-23T19:54:39.251Z,4.07
2019-06-23T19:57:08.769Z,3.58
2019-06-23T19:59:38.284Z,3.85
2019-06-23T20:02:07.726Z,3.50
2019-06-23T20:04:37.457Z,3.50
2019-06-23T20:09:39.833Z,3.85
2019-06-23T20:12:10.305Z,3.85
2019-06-23T20:14:39.758Z,3.60
2019-06-23T20:17:09.156Z,3.70
2019-06-23T20:19:39.747Z,3.80
2019-06-23T20:22:09.576Z,3.83
2019-06-23T20:24:41.080Z,4.78
2019-06-23T20:27:10.747Z,3.50
2019-06-23T20:29:40.363Z,4.03
2019-06-23T20:32:10.237Z,3.55
2019-06-23T20:34:39.608Z,3.90
2019-06-23T20:37:09.063Z,4.33
2019-06-23T20:39:38.594Z,4.00
2019-06-23T20:42:08.153Z,4.53
2019-06-23T20:44:42.396Z,4.20
2019-06-23T20:47:08.637Z,5.80
2019-06-23T20:49:38.019Z,4.37
2019-06-23T20:52:07.476Z,3.75
2019-06-23T20:54:36.970Z,3.50
2019-06-23T20:57:06.485Z,3.90
2019-06-23T20:59:35.920Z,3.47
2019-06-23T21:02:05.688Z,3.75
2019-06-23T21:04:35.157Z,3.40
2019-06-23T21:07:04.581Z,3.70
2019-06-23T21:09:34.019Z,3.70
2019-06-23T21:12:03.566Z,3.73
2019-06-23T21:14:32.972Z,3.75
2019-06-23T21:17:05.221Z,3.40
2019-06-23T21:19:36.887Z,3.52
2019-06-23T21:22:04.640Z,3.50
2019-06-23T21:24:34.058Z,3.70
2019-06-23T21:27:03.538Z,3.77
2019-06-23T21:29:32.911Z,3.80
2019-06-23T21:32:02.442Z,3.33
2019-06-23T21:34:32.234Z,3.45
2019-06-23T21:37:01.624Z,3.90
2019-06-23T21:39:31.316Z,3.50
2019-06-23T21:42:00.880Z,3.72
2019-06-23T21:44:30.415Z,3.95
2019-06-23T21:46:59.875Z,3.87
2019-06-23T21:49:29.287Z,3.47
2019-06-23T21:51:58.717Z,3.33
2019-06-23T21:54:28.168Z,4.00
2019-06-23T21:56:56.900Z,4.00
2019-06-23T21:59:25.639Z,3.72
2019-06-23T22:01:54.492Z,3.58
2019-06-23T22:04:23.267Z,4.08
2019-06-23T22:06:52.024Z,4.03
2019-06-23T22:09:20.854Z,4.67
2019-06-23T22:11:50.502Z,4.92
2019-06-23T22:14:19.940Z,5.20
2019-06-23T22:16:49.336Z,6.10
2019-06-23T22:19:18.691Z,5.87
2019-06-23T22:21:48.095Z,6.42
2019-06-23T22:24:17.575Z,6.20
2019-06-23T22:26:47.038Z,5.75
2019-06-23T22:29:16.613Z,6.05
2019-06-23T22:31:46.070Z,5.92
2019-06-23T22:34:15.435Z,5.57
2019-06-23T22:36:44.999Z,6.10
2019-06-23T22:39:14.433Z,5.80
2019-06-23T22:41:43.889Z,5.33
2019-06-23T22:44:13.359Z,5.40
2019-06-23T22:46:42.855Z,5.45
2019-06-23T22:49:12.288Z,5.65
2019-06-23T22:51:41.721Z,5.45
2019-06-23T22:54:11.111Z,5.77
2019-06-23T22:56:40.506Z,5.40
2019-06-23T22:59:09.896Z,5.80
2019-06-23T23:01:39.390Z,5.40
2019-06-23T23:04:08.844Z,6.03
2019-06-23T23:06:38.199Z,7.27
2019-06-23T23:09:08.009Z,9.13
2019-06-23T23:11:37.490Z,9.60
2019-06-23T23:14:06.952Z,9.93
2019-06-23T23:16:36.487Z,11.38
2019-06-23T23:19:05.889Z,12.03
2019-06-23T23:21:35.298Z,12.57
2019-06-23T23:24:04.738Z,12.37
2019-06-23T23:26:34.167Z,13.78
2019-06-23T23:29:03.572Z,13.17
2019-06-23T23:31:33.044Z,11.80
2019-06-23T23:34:02.412Z,12.63
2019-06-23T23:36:31.876Z,12.90
2019-06-23T23:39:01.004Z,13.77
2019-06-23T23:41:29.785Z,13.33
2019-06-23T23:43:59.534Z,13.23
2019-06-23T23:46:28.967Z,13.73
2019-06-23T23:48:58.340Z,15.20
2019-06-23T23:51:27.913Z,15.30
2019-06-23T23:53:57.392Z,15.57
2019-06-23T23:56:26.848Z,15.47
2019-06-23T23:58:56.261Z,15.70
